createdAt,value
2018-06-24T00:00:15.552Z,16.06
2018-06-24T00:05:18.655Z,15.94
2018-06-24T00:10:21.705Z,15.84
2018-06-24T00:15:24.733Z,15.74
2018-06-24T00:20:27.762Z,15.65
2018-06-24T00:25:30.813Z,15.59
2018-06-24T00:30:33.871Z,15.54
2018-06-24T00:35:36.889Z,15.48
2018-06-24T00:40:39.933Z,15.43
2018-06-24T00:45:42.959Z,15.36
2018-06-24T00:50:45.989Z,15.33
2018-06-24T00:55:49.029Z,15.31
2018-06-24T01:00:52.056Z,15.36
2018-06-24T01:05:55.069Z,15.41
2018-06-24T01:10:58.113Z,15.29
2018-06-24T01:16:01.175Z,15.32
2018-06-24T01:21:04.207Z,15.22
2018-06-24T01:26:07.250Z,15.15
2018-06-24T01:31:11.110Z,15.11
2018-06-24T01:36:14.194Z,15.04
2018-06-24T01:41:17.204Z,14.94
2018-06-24T01:46:20.261Z,14.83
2018-06-24T01:51:23.241Z,14.73
2018-06-24T01:56:26.232Z,14.66
2018-06-24T02:01:29.235Z,14.64
2018-06-24T02:06:32.249Z,14.72
2018-06-24T02:11:35.258Z,14.81
2018-06-24T02:16:38.454Z,14.80
2018-06-24T02:21:41.533Z,14.76
2018-06-24T02:26:44.572Z,14.76
2018-06-24T02:31:47.585Z,14.80
2018-06-24T02:36:50.603Z,14.81
2018-06-24T02:41:53.622Z,14.83
2018-06-24T02:46:56.635Z,14.81
2018-06-24T02:51:59.677Z,14.86
2018-06-24T02:57:02.710Z,14.93
2018-06-24T03:02:06.091Z,14.96
2018-06-24T03:07:09.153Z,15.02
2018-06-24T03:12:12.199Z,15.10
2018-06-24T03:17:15.207Z,15.13
2018-06-24T03:22:18.254Z,15.09
2018-06-24T03:27:21.291Z,15.10
2018-06-24T03:32:24.278Z,15.11
2018-06-24T03:37:27.262Z,15.19
2018-06-24T03:42:30.263Z,15.28
2018-06-24T03:47:33.638Z,15.34
2018-06-24T03:52:36.690Z,15.35
2018-06-24T03:57:39.717Z,15.46
2018-06-24T04:02:42.852Z,15.49
2018-06-24T04:07:45.933Z,15.62
2018-06-24T04:12:48.954Z,15.62
2018-06-24T04:17:51.960Z,15.65
2018-06-24T04:22:55.608Z,15.74
2018-06-24T04:27:58.680Z,15.82
2018-06-24T04:33:02.522Z,15.93
2018-06-24T04:38:05.866Z,16.05
2018-06-24T04:43:09.250Z,16.21
2018-06-24T04:48:13.130Z,16.32
2018-06-24T04:53:17.002Z,16.39
2018-06-24T04:58:20.624Z,16.45
2018-06-24T05:03:23.933Z,16.52
2018-06-24T05:08:27.397Z,16.59
2018-06-24T05:13:31.559Z,16.77
2018-06-24T05:18:38.809Z,16.84
2018-06-24T05:23:42.882Z,16.94
2018-06-24T05:28:46.479Z,17.11
2018-06-24T05:33:50.128Z,17.53
2018-06-24T05:38:53.669Z,17.78
2018-06-24T05:43:56.752Z,17.80
2018-06-24T05:49:00.354Z,17.94
2018-06-24T05:54:03.975Z,18.13
2018-06-24T05:59:07.531Z,18.36
2018-06-24T06:04:11.149Z,18.59
2018-06-24T06:09:14.136Z,18.58
2018-06-24T06:14:17.902Z,18.52
2018-06-24T06:19:21.426Z,18.63
2018-06-24T06:24:24.873Z,18.43
2018-06-24T06:29:29.363Z,18.28
2018-06-24T06:34:33.455Z,18.08
2018-06-24T06:39:37.116Z,18.00
2018-06-24T06:44:40.830Z,18.01
2018-06-24T06:49:44.478Z,18.08
2018-06-24T06:54:47.989Z,18.20
2018-06-24T06:59:51.536Z,18.40
2018-06-24T07:04:54.597Z,18.50
2018-06-24T07:09:57.591Z,18.61
2018-06-24T07:15:00.626Z,18.99
2018-06-24T07:20:03.907Z,19.39
2018-06-24T07:25:06.982Z,19.61
2018-06-24T07:30:10.063Z,19.80
2018-06-24T07:35:13.083Z,19.93
2018-06-24T07:40:16.085Z,20.36
2018-06-24T07:45:19.104Z,21.11
2018-06-24T07:50:22.173Z,21.05
2018-06-24T07:55:25.111Z,21.14
2018-06-24T08:00:28.137Z,21.47
2018-06-24T08:05:31.158Z,21.19
2018-06-24T08:10:34.154Z,21.39
2018-06-24T08:15:37.162Z,21.03
2018-06-24T08:20:40.225Z,21.11
2018-06-24T08:25:43.297Z,20.94
2018-06-24T08:30:46.299Z,20.47
2018-06-24T08:35:49.276Z,19.78
2018-06-24T08:40:52.302Z,19.16
2018-06-24T08:45:55.305Z,19.08
2018-06-24T08:50:58.314Z,19.76
2018-06-24T08:56:01.364Z,19.48
2018-06-24T09:01:04.386Z,19.23
2018-06-24T09:06:07.417Z,19.50
2018-06-24T09:11:10.471Z,19.69
2018-06-24T09:16:13.625Z,20.05
2018-06-24T09:21:16.638Z,20.28
2018-06-24T09:26:19.678Z,20.45
2018-06-24T09:31:22.705Z,21.35
2018-06-24T09:36:25.701Z,21.65
2018-06-24T09:41:28.688Z,21.44
2018-06-24T09:46:31.706Z,21.44
2018-06-24T09:51:35.585Z,21.54
2018-06-24T09:56:38.681Z,21.67
2018-06-24T10:01:41.733Z,21.13
2018-06-24T10:06:45.105Z,20.81
2018-06-24T10:11:48.173Z,21.04
2018-06-24T10:16:51.221Z,21.51
2018-06-24T10:21:54.461Z,21.50
2018-06-24T10:26:57.456Z,20.90
2018-06-24T10:32:00.469Z,20.68
2018-06-24T10:37:03.473Z,20.41
2018-06-24T10:42:06.485Z,20.26
2018-06-24T10:47:09.554Z,20.27
2018-06-24T10:52:12.572Z,20.51
2018-06-24T10:57:15.643Z,20.72
2018-06-24T11:02:18.733Z,20.73
2018-06-24T11:07:21.725Z,20.28
2018-06-24T11:12:24.798Z,20.19
2018-06-24T11:17:27.921Z,19.97
2018-06-24T11:22:30.937Z,20.49
2018-06-24T11:27:33.973Z,20.80
2018-06-24T11:32:36.979Z,20.74
2018-06-24T11:37:40.001Z,20.42
2018-06-24T11:42:43.047Z,20.38
2018-06-24T11:47:46.219Z,20.35
2018-06-24T11:52:49.198Z,20.47
2018-06-24T11:57:52.218Z,20.08
2018-06-24T12:02:55.257Z,20.27
2018-06-24T12:07:58.265Z,20.16
2018-06-24T12:13:01.656Z,20.33
2018-06-24T12:18:05.087Z,20.33
2018-06-24T12:23:08.167Z,20.08
2018-06-24T12:28:11.177Z,20.01
2018-06-24T12:33:14.221Z,20.33
2018-06-24T12:38:17.233Z,20.49
2018-06-24T12:43:20.279Z,20.21
2018-06-24T12:48:23.302Z,19.68
2018-06-24T12:53:26.302Z,19.28
2018-06-24T12:58:29.348Z,19.37
2018-06-24T13:03:32.353Z,19.75
2018-06-24T13:08:35.340Z,19.89
2018-06-24T13:13:38.613Z,19.94
2018-06-24T13:18:41.674Z,19.73
2018-06-24T13:23:45.046Z,19.74
2018-06-24T13:28:48.110Z,19.78
2018-06-24T13:33:51.098Z,19.81
2018-06-24T13:38:54.134Z,19.54
2018-06-24T13:43:57.116Z,19.60
2018-06-24T13:49:00.161Z,19.84
2018-06-24T13:54:03.242Z,19.86
2018-06-24T13:59:07.008Z,20.19
2018-06-24T14:04:10.078Z,20.25
2018-06-24T14:09:13.383Z,20.44
2018-06-24T14:14:16.950Z,20.99
2018-06-24T14:19:21.436Z,21.09
2018-06-24T14:24:25.051Z,20.90
2018-06-24T14:29:28.797Z,20.49
2018-06-24T14:34:32.605Z,20.01
2018-06-24T14:39:36.275Z,20.07
2018-06-24T14:44:39.842Z,20.12
2018-06-24T14:49:43.741Z,19.93
2018-06-24T14:54:47.463Z,19.83
2018-06-24T14:59:51.161Z,19.70
2018-06-24T15:04:54.836Z,19.56
2018-06-24T15:09:58.673Z,19.51
2018-06-24T15:15:02.512Z,19.49
2018-06-24T15:20:05.990Z,19.49
2018-06-24T15:25:09.726Z,19.63
2018-06-24T15:30:15.598Z,19.78
2018-06-24T15:35:19.331Z,19.78
2018-06-24T15:40:23.065Z,19.66
2018-06-24T15:45:26.590Z,19.61
2018-06-24T15:50:29.700Z,19.50
2018-06-24T15:55:32.846Z,19.39
2018-06-24T16:00:35.960Z,19.03
2018-06-24T16:05:39.851Z,18.76
2018-06-24T16:10:43.841Z,18.78
2018-06-24T16:15:48.053Z,18.73
2018-06-24T16:20:51.485Z,18.73
2018-06-24T16:25:54.611Z,18.86
2018-06-24T16:30:57.710Z,18.99
2018-06-24T16:36:00.842Z,19.03
2018-06-24T16:41:03.929Z,19.09
2018-06-24T16:46:06.982Z,19.18
2018-06-24T16:51:10.135Z,19.17
2018-06-24T16:56:13.242Z,19.08
2018-06-24T17:01:16.329Z,19.07
2018-06-24T17:06:19.394Z,19.07
2018-06-24T17:11:22.449Z,19.29
2018-06-24T17:16:25.450Z,19.37
2018-06-24T17:21:29.271Z,19.29
2018-06-24T17:26:32.325Z,18.92
2018-06-24T17:31:35.332Z,18.86
2018-06-24T17:36:38.769Z,18.82
2018-06-24T17:41:44.363Z,18.84
2018-06-24T17:46:47.479Z,18.82
2018-06-24T17:51:50.546Z,18.25
2018-06-24T17:56:53.775Z,17.73
2018-06-24T18:02:01.113Z,17.57
2018-06-24T18:07:04.454Z,17.49
2018-06-24T18:12:07.761Z,17.63
2018-06-24T18:17:10.869Z,17.79
2018-06-24T18:22:14.084Z,17.86
2018-06-24T18:27:17.204Z,17.79
2018-06-24T18:32:20.282Z,17.85
2018-06-24T18:37:23.305Z,17.71
2018-06-24T18:42:26.337Z,17.59
2018-06-24T18:47:29.370Z,17.51
2018-06-24T18:52:32.884Z,17.52
2018-06-24T18:57:36.095Z,17.48
2018-06-24T19:02:39.223Z,17.56
2018-06-24T19:07:42.284Z,17.62
2018-06-24T19:12:46.486Z,17.60
2018-06-24T19:17:49.618Z,17.71
2018-06-24T19:22:52.690Z,17.68
2018-06-24T19:27:55.758Z,17.62
2018-06-24T19:32:58.822Z,17.53
2018-06-24T19:38:02.422Z,17.62
2018-06-24T19:43:05.521Z,17.50
2018-06-24T19:48:08.625Z,17.48
2018-06-24T19:53:11.894Z,17.42
2018-06-24T19:58:14.997Z,17.46
2018-06-24T20:03:18.114Z,17.54
2018-06-24T20:08:21.102Z,17.52
2018-06-24T20:13:24.128Z,17.51
2018-06-24T20:18:27.282Z,17.56
2018-06-24T20:23:30.360Z,17.53
2018-06-24T20:28:34.471Z,17.41
2018-06-24T20:33:37.631Z,17.35
2018-06-24T20:38:40.766Z,17.26
2018-06-24T20:43:44.139Z,17.18
2018-06-24T20:48:47.197Z,17.08
2018-06-24T20:53:50.231Z,16.98
2018-06-24T20:58:53.276Z,16.96
2018-06-24T21:03:56.361Z,16.86
2018-06-24T21:08:59.513Z,16.84
2018-06-24T21:14:02.721Z,16.86
2018-06-24T21:19:05.761Z,16.77
2018-06-24T21:24:08.833Z,16.69
2018-06-24T21:29:11.877Z,16.65
2018-06-24T21:34:14.910Z,16.67
2018-06-24T21:39:17.942Z,16.80
2018-06-24T21:44:21.041Z,16.77
2018-06-24T21:49:24.119Z,16.79
2018-06-24T21:54:27.145Z,16.73
2018-06-24T21:59:30.217Z,16.73
2018-06-24T22:04:33.281Z,16.75
2018-06-24T22:09:36.367Z,16.85
2018-06-24T22:14:39.416Z,16.78
2018-06-24T22:19:42.515Z,16.72
2018-06-24T22:24:45.637Z,16.72
2018-06-24T22:29:48.697Z,16.68
2018-06-24T22:34:51.735Z,16.62
2018-06-24T22:39:54.791Z,16.63
2018-06-24T22:44:57.849Z,16.77
2018-06-24T22:50:00.901Z,16.71
2018-06-24T22:55:04.024Z,16.59
2018-06-24T23:00:12.818Z,16.43
2018-06-24T23:05:15.879Z,16.54
2018-06-24T23:10:18.954Z,16.52
2018-06-24T23:15:22.034Z,16.54
2018-06-24T23:20:25.139Z,16.52
2018-06-24T23:25:28.233Z,16.47
2018-06-24T23:30:31.306Z,16.53
2018-06-24T23:35:34.365Z,16.55
2018-06-24T23:40:37.417Z,16.52
2018-06-24T23:45:40.514Z,16.58
2018-06-24T23:50:43.795Z,16.64
2018-06-24T23:55:46.864Z,16.72
